sensor_id;sensor_type;location;lat;lon;timestamp;pressure;altitude;pressure_sealevel;temperature
76009;BMP280;64700;52.130;21.270;2023-08-07T00:00:15;98951.97;;;25.19
76009;BMP280;64700;52.130;21.270;2023-08-07T00:02:40;98968.38;;;25.19
76009;BMP280;64700;52.130;21.270;2023-08-07T00:05:05;98954.69;;;25.19
76009;BMP280;64700;52.130;21.270;2023-08-07T00:07:31;98956.69;;;25.19
76009;BMP280;64700;52.130;21.270;2023-08-07T00:09:56;98973.84;;;25.19
76009;BMP280;64700;52.130;21.270;2023-08-07T00:12:21;98966.34;;;25.20
76009;BMP280;64700;52.130;21.270;2023-08-07T00:14:47;98945.53;;;25.17
76009;BMP280;64700;52.130;21.270;2023-08-07T00:17:12;98968.91;;;25.18
76009;BMP280;64700;52.130;21.270;2023-08-07T00:19:37;98979.31;;;25.19
76009;BMP280;64700;52.130;21.270;2023-08-07T00:22:02;98968.91;;;25.18
76009;BMP280;64700;52.130;21.270;2023-08-07T00:24:27;98971.63;;;25.18
76009;BMP280;64700;52.130;21.270;2023-08-07T00:26:53;98953.00;;;25.16
76009;BMP280;64700;52.130;21.270;2023-08-07T00:29:18;98946.28;;;25.17
76009;BMP280;64700;52.130;21.270;2023-08-07T00:31:43;98955.75;;;25.16
76009;BMP280;64700;52.130;21.270;2023-08-07T00:34:08;98953.75;;;25.17
76009;BMP280;64700;52.130;21.270;2023-08-07T00:36:34;98954.28;;;25.15
76009;BMP280;64700;52.130;21.270;2023-08-07T00:39:00;98953.00;;;25.16
76009;BMP280;64700;52.130;21.270;2023-08-07T00:41:25;98954.47;;;25.17
76009;BMP280;64700;52.130;21.270;2023-08-07T00:43:50;98956.47;;;25.17
76009;BMP280;64700;52.130;21.270;2023-08-07T00:46:15;98950.28;;;25.16
76009;BMP280;64700;52.130;21.270;2023-08-07T00:48:41;98949.00;;;25.17
76009;BMP280;64700;52.130;21.270;2023-08-07T00:51:06;98957.75;;;25.16
76009;BMP280;64700;52.130;21.270;2023-08-07T00:53:33;98950.28;;;25.16
76009;BMP280;64700;52.130;21.270;2023-08-07T00:55:58;98942.06;;;25.16
76009;BMP280;64700;52.130;21.270;2023-08-07T00:58:23;98935.16;;;25.15
76009;BMP280;64700;52.130;21.270;2023-08-07T01:00:49;98924.00;;;25.13
76009;BMP280;64700;52.130;21.270;2023-08-07T01:03:14;98925.47;;;25.14
76009;BMP280;64700;52.130;21.270;2023-08-07T01:05:39;98930.94;;;25.14
76009;BMP280;64700;52.130;21.270;2023-08-07T01:08:05;98932.94;;;25.14
76009;BMP280;64700;52.130;21.270;2023-08-07T01:10:34;98937.66;;;25.13
76009;BMP280;64700;52.130;21.270;2023-08-07T01:13:03;98930.19;;;25.14
76009;BMP280;64700;52.130;21.270;2023-08-07T01:15:30;98930.19;;;25.14
76009;BMP280;64700;52.130;21.270;2023-08-07T01:17:56;98933.50;;;25.12
76009;BMP280;64700;52.130;21.270;2023-08-07T01:20:22;98921.81;;;25.12
76009;BMP280;64700;52.130;21.270;2023-08-07T01:22:48;98929.47;;;25.13
76009;BMP280;64700;52.130;21.270;2023-08-07T01:25:13;98919.81;;;25.12
76009;BMP280;64700;52.130;21.270;2023-08-07T01:27:55;98920.34;;;25.11
76009;BMP280;64700;52.130;21.270;2023-08-07T01:35:19;98948.44;;;25.11
76009;BMP280;64700;52.130;21.270;2023-08-07T01:37:45;98944.94;;;25.11
76009;BMP280;64700;52.130;21.270;2023-08-07T01:40:11;98960.84;;;25.12
76009;BMP280;64700;52.130;21.270;2023-08-07T01:42:37;98958.09;;;25.12
76009;BMP280;64700;52.130;21.270;2023-08-07T01:45:03;98942.94;;;25.11
76009;BMP280;64700;52.130;21.270;2023-08-07T01:47:29;98954.63;;;25.12
76009;BMP280;64700;52.130;21.270;2023-08-07T01:49:54;98940.22;;;25.11
76009;BMP280;64700;52.130;21.270;2023-08-07T01:52:19;98935.28;;;25.10
76009;BMP280;64700;52.130;21.270;2023-08-07T01:54:45;98923.63;;;25.09
76009;BMP280;64700;52.130;21.270;2023-08-07T01:57:10;98916.13;;;25.10
76009;BMP280;64700;52.130;21.270;2023-08-07T01:59:35;98923.63;;;25.09
76009;BMP280;64700;52.130;21.270;2023-08-07T02:02:00;98924.31;;;25.10
76009;BMP280;64700;52.130;21.270;2023-08-07T02:04:26;98934.00;;;25.11
76009;BMP280;64700;52.130;21.270;2023-08-07T02:06:51;98942.78;;;25.09
76009;BMP280;64700;52.130;21.270;2023-08-07T02:09:16;98950.97;;;25.09
76009;BMP280;64700;52.130;21.270;2023-08-07T02:11:41;98954.97;;;25.08
76009;BMP280;64700;52.130;21.270;2023-08-07T02:14:07;98968.66;;;25.08
76009;BMP280;64700;52.130;21.270;2023-08-07T02:16:33;98968.66;;;25.08
76009;BMP280;64700;52.130;21.270;2023-08-07T02:18:58;98970.81;;;25.10
76009;BMP280;64700;52.130;21.270;2023-08-07T02:21:23;98974.31;;;25.10
76009;BMP280;64700;52.130;21.270;2023-08-07T02:23:48;98970.63;;;25.08
76009;BMP280;64700;52.130;21.270;2023-08-07T02:26:14;98969.13;;;25.07
76009;BMP280;64700;52.130;21.270;2023-08-07T02:28:39;98977.34;;;25.07
76009;BMP280;64700;52.130;21.270;2023-08-07T02:31:04;98985.06;;;25.08
76009;BMP280;64700;52.130;21.270;2023-08-07T02:33:29;98988.28;;;25.07
76009;BMP280;64700;52.130;21.270;2023-08-07T02:35:55;98984.09;;;25.06
76009;BMP280;64700;52.130;21.270;2023-08-07T02:38:20;98975.91;;;25.06
76009;BMP280;64700;52.130;21.270;2023-08-07T02:40:46;98968.94;;;25.05
76009;BMP280;64700;52.130;21.270;2023-08-07T02:43:11;98975.16;;;25.05
76009;BMP280;64700;52.130;21.270;2023-08-07T02:45:36;98988.84;;;25.05
76009;BMP280;64700;52.130;21.270;2023-08-07T02:48:01;98974.41;;;25.05
76009;BMP280;64700;52.130;21.270;2023-08-07T02:50:26;98969.69;;;25.05
76009;BMP280;64700;52.130;21.270;2023-08-07T02:52:54;98970.94;;;25.04
76009;BMP280;64700;52.130;21.270;2023-08-07T02:55:19;98968.22;;;25.04
76009;BMP280;64700;52.130;21.270;2023-08-07T02:57:45;98962.00;;;25.04
76009;BMP280;64700;52.130;21.270;2023-08-07T03:00:10;98958.53;;;25.03
76009;BMP280;64700;52.130;21.270;2023-08-07T03:02:36;98956.53;;;25.04
76009;BMP280;64700;52.130;21.270;2023-08-07T03:05:01;98960.75;;;25.05
76009;BMP280;64700;52.130;21.270;2023-08-07T03:07:27;98974.19;;;25.03
76009;BMP280;64700;52.130;21.270;2023-08-07T03:09:52;98984.63;;;25.04
76009;BMP280;64700;52.130;21.270;2023-08-07T03:12:17;98975.16;;;25.05
76009;BMP280;64700;52.130;21.270;2023-08-07T03:14:42;98989.56;;;25.06
76009;BMP280;64700;52.130;21.270;2023-08-07T03:17:07;98999.78;;;25.05
76009;BMP280;64700;52.130;21.270;2023-08-07T03:19:32;99000.28;;;25.04
76009;BMP280;64700;52.130;21.270;2023-08-07T03:21:58;99005.03;;;25.03
76009;BMP280;64700;52.130;21.270;2023-08-07T03:24:23;98989.91;;;25.02
76009;BMP280;64700;52.130;21.270;2023-08-07T03:26:48;98997.38;;;25.02
76009;BMP280;64700;52.130;21.270;2023-08-07T03:29:14;99001.56;;;25.03
76009;BMP280;64700;52.130;21.270;2023-08-07T03:31:39;99003.56;;;25.02
76009;BMP280;64700;52.130;21.270;2023-08-07T03:34:04;99011.78;;;25.02
76009;BMP280;64700;52.130;21.270;2023-08-07T03:36:29;99004.09;;;25.01
76009;BMP280;64700;52.130;21.270;2023-08-07T03:38:54;99008.31;;;25.02
76009;BMP280;64700;52.130;21.270;2023-08-07T03:41:20;99016.50;;;25.02
76009;BMP280;64700;52.130;21.270;2023-08-07T03:43:45;99008.31;;;25.02
76009;BMP280;64700;52.130;21.270;2023-08-07T03:46:10;99027.44;;;25.02
76009;BMP280;64700;52.130;21.270;2023-08-07T03:48:35;99021.25;;;25.01
76009;BMP280;64700;52.130;21.270;2023-08-07T03:51:07;99022.50;;;25.00
76009;BMP280;64700;52.130;21.270;2023-08-07T03:53:35;99015.59;;;24.99
76009;BMP280;64700;52.130;21.270;2023-08-07T03:56:00;99001.16;;;24.99
76009;BMP280;64700;52.130;21.270;2023-08-07T03:58:26;99001.38;;;25.01
76009;BMP280;64700;52.130;21.270;2023-08-07T04:00:51;99002.63;;;25.00
76009;BMP280;64700;52.130;21.270;2023-08-07T04:03:18;98997.88;;;25.00
76009;BMP280;64700;52.130;21.270;2023-08-07T04:05:43;99002.63;;;25.00
76009;BMP280;64700;52.130;21.270;2023-08-07T04:08:08;99012.28;;;25.01
76009;BMP280;64700;52.130;21.270;2023-08-07T04:10:33;99010.81;;;25.00
76009;BMP280;64700;52.130;21.270;2023-08-07T04:12:59;99013.56;;;25.00
76009;BMP280;64700;52.130;21.270;2023-08-07T04:15:25;99015.59;;;24.99
76009;BMP280;64700;52.130;21.270;2023-08-07T04:17:50;99023.78;;;24.99
76009;BMP280;64700;52.130;21.270;2023-08-07T04:20:15;99021.06;;;24.99
76009;BMP280;64700;52.130;21.270;2023-08-07T04:22:41;99025.78;;;24.99
76009;BMP280;64700;52.130;21.270;2023-08-07T04:25:06;99023.78;;;24.99
76009;BMP280;64700;52.130;21.270;2023-08-07T04:27:31;99038.16;;;25.00
76009;BMP280;64700;52.130;21.270;2023-08-07T04:29:56;99052.59;;;25.00
76009;BMP280;64700;52.130;21.270;2023-08-07T04:32:22;99060.78;;;25.00
76009;BMP280;64700;52.130;21.270;2023-08-07T04:34:47;99066.25;;;25.00
76009;BMP280;64700;52.130;21.270;2023-08-07T04:37:13;99051.13;;;24.99
76009;BMP280;64700;52.130;21.270;2023-08-07T04:39:38;99047.13;;;25.00
76009;BMP280;64700;52.130;21.270;2023-08-07T04:42:03;99056.06;;;25.01
76009;BMP280;64700;52.130;21.270;2023-08-07T04:44:29;99055.88;;;24.99
76009;BMP280;64700;52.130;21.270;2023-08-07T04:46:54;99059.53;;;25.01
76009;BMP280;64700;52.130;21.270;2023-08-07T04:49:19;99066.25;;;25.00
76009;BMP280;64700;52.130;21.270;2023-08-07T04:51:44;99060.78;;;25.00
76009;BMP280;64700;52.130;21.270;2023-08-07T04:54:09;99056.06;;;25.01
76009;BMP280;64700;52.130;21.270;2023-08-07T04:56:34;99067.00;;;25.01
76009;BMP280;64700;52.130;21.270;2023-08-07T04:58:59;99056.06;;;25.01
76009;BMP280;64700;52.130;21.270;2023-08-07T05:01:26;99060.03;;;25.00
76009;BMP280;64700;52.130;21.270;2023-08-07T05:03:51;99062.06;;;24.99
76009;BMP280;64700;52.130;21.270;2023-08-07T05:06:17;99060.59;;;24.98
76009;BMP280;64700;52.130;21.270;2023-08-07T05:08:42;99069.53;;;24.99
76009;BMP280;64700;52.130;21.270;2023-08-07T05:11:07;99072.28;;;24.99
76009;BMP280;64700;52.130;21.270;2023-08-07T05:13:32;99071.00;;;25.00
76009;BMP280;64700;52.130;21.270;2023-08-07T05:15:57;99070.28;;;24.99
76009;BMP280;64700;52.130;21.270;2023-08-07T05:18:22;99075.75;;;24.99
76009;BMP280;64700;52.130;21.270;2023-08-07T05:20:48;99061.84;;;24.97
76009;BMP280;64700;52.130;21.270;2023-08-07T05:23:13;99071.31;;;24.96
76009;BMP280;64700;52.130;21.270;2023-08-07T05:25:38;99061.13;;;24.97
76009;BMP280;64700;52.130;21.270;2023-08-07T05:28:03;99068.78;;;24.98
76009;BMP280;64700;52.130;21.270;2023-08-07T05:30:28;99057.66;;;24.96
76009;BMP280;64700;52.130;21.270;2023-08-07T05:32:54;99070.06;;;24.97
76009;BMP280;64700;52.130;21.270;2023-08-07T05:35:19;99059.13;;;24.97
76009;BMP280;64700;52.130;21.270;2023-08-07T05:37:44;99058.94;;;24.95
76009;BMP280;64700;52.130;21.270;2023-08-07T05:40:10;99072.06;;;24.97
76009;BMP280;64700;52.130;21.270;2023-08-07T05:42:38;99066.59;;;24.97
76009;BMP280;64700;52.130;21.270;2023-08-07T05:45:04;99065.84;;;24.96
76009;BMP280;64700;52.130;21.270;2023-08-07T05:47:29;99061.13;;;24.97
76009;BMP280;64700;52.130;21.270;2023-08-07T05:49:54;99057.66;;;24.96
76009;BMP280;64700;52.130;21.270;2023-08-07T05:52:19;99057.13;;;24.98
76009;BMP280;64700;52.130;21.270;2023-08-07T05:54:45;99058.59;;;24.99
76009;BMP280;64700;52.130;21.270;2023-08-07T05:57:10;99062.59;;;24.98
76009;BMP280;64700;52.130;21.270;2023-08-07T05:59:35;99066.25;;;25.00
76009;BMP280;64700;52.130;21.270;2023-08-07T06:02:02;99061.53;;;25.01
76009;BMP280;64700;52.130;21.270;2023-08-07T06:04:27;99057.53;;;25.02
76009;BMP280;64700;52.130;21.270;2023-08-07T06:06:52;99057.53;;;25.02
76009;BMP280;64700;52.130;21.270;2023-08-07T06:09:18;99045.84;;;25.01
76009;BMP280;64700;52.130;21.270;2023-08-07T06:11:43;99049.09;;;25.00
76009;BMP280;64700;52.130;21.270;2023-08-07T06:14:08;99050.59;;;25.01
76009;BMP280;64700;52.130;21.270;2023-08-07T06:16:33;99057.88;;;24.98
76009;BMP280;64700;52.130;21.270;2023-08-07T06:18:59;99059.34;;;24.99
76009;BMP280;64700;52.130;21.270;2023-08-07T06:21:24;99058.06;;;25.00
76009;BMP280;64700;52.130;21.270;2023-08-07T06:23:49;99053.88;;;24.99
76009;BMP280;64700;52.130;21.270;2023-08-07T06:26:14;99064.81;;;24.99
76009;BMP280;64700;52.130;21.270;2023-08-07T06:28:39;99054.56;;;25.00
76009;BMP280;64700;52.130;21.270;2023-08-07T06:31:05;99061.53;;;25.01
76009;BMP280;64700;52.130;21.270;2023-08-07T06:33:31;99063.53;;;25.00
76009;BMP280;64700;52.130;21.270;2023-08-07T06:35:57;99060.78;;;25.00
76009;BMP280;64700;52.130;21.270;2023-08-07T06:38:22;99063.75;;;25.02
76009;BMP280;64700;52.130;21.270;2023-08-07T06:40:47;99068.47;;;25.02
76009;BMP280;64700;52.130;21.270;2023-08-07T06:43:12;99076.69;;;25.02
76009;BMP280;64700;52.130;21.270;2023-08-07T06:45:37;99069.22;;;25.02
76009;BMP280;64700;52.130;21.270;2023-08-07T06:48:03;99072.66;;;25.03
76009;BMP280;64700;52.130;21.270;2023-08-07T06:50:28;99069.91;;;25.03
76009;BMP280;64700;52.130;21.270;2023-08-07T06:52:53;99077.19;;;25.00
76009;BMP280;64700;52.130;21.270;2023-08-07T06:55:19;99082.16;;;25.02
76009;BMP280;64700;52.130;21.270;2023-08-07T06:57:44;99079.41;;;25.02
76009;BMP280;64700;52.130;21.270;2023-08-07T07:00:09;99076.44;;;25.00
76009;BMP280;64700;52.130;21.270;2023-08-07T07:02:36;99079.41;;;25.02
76009;BMP280;64700;52.130;21.270;2023-08-07T07:05:01;99088.13;;;25.00
76009;BMP280;64700;52.130;21.270;2023-08-07T07:07:26;99085.94;;;24.99
76009;BMP280;64700;52.130;21.270;2023-08-07T07:09:51;99100.13;;;24.97
76009;BMP280;64700;52.130;21.270;2023-08-07T07:12:16;99105.28;;;25.01
76009;BMP280;64700;52.130;21.270;2023-08-07T07:14:41;99103.28;;;25.01
76009;BMP280;64700;52.130;21.270;2023-08-07T07:17:07;99099.28;;;25.02
76009;BMP280;64700;52.130;21.270;2023-08-07T07:19:32;99107.28;;;25.00
76009;BMP280;64700;52.130;21.270;2023-08-07T07:21:57;99106.03;;;25.01
76009;BMP280;64700;52.130;21.270;2023-08-07T07:24:22;99107.50;;;25.02
76009;BMP280;64700;52.130;21.270;2023-08-07T07:26:47;99113.34;;;25.06
76009;BMP280;64700;52.130;21.270;2023-08-07T07:29:13;99108.94;;;25.03
76009;BMP280;64700;52.130;21.270;2023-08-07T07:31:38;99105.47;;;25.03
76009;BMP280;64700;52.130;21.270;2023-08-07T07:34:03;99115.47;;;25.00
76009;BMP280;64700;52.130;21.270;2023-08-07T07:36:28;99118.63;;;25.04
76009;BMP280;64700;52.130;21.270;2023-08-07T07:38:53;99118.09;;;25.06
76009;BMP280;64700;52.130;21.270;2023-08-07T07:41:18;99121.88;;;25.03
76009;BMP280;64700;52.130;21.270;2023-08-07T07:43:44;99125.34;;;25.03
76009;BMP280;64700;52.130;21.270;2023-08-07T07:46:09;99120.44;;;25.02
76009;BMP280;64700;52.130;21.270;2023-08-07T07:48:34;99121.88;;;25.03
76009;BMP280;64700;52.130;21.270;2023-08-07T07:51:03;99118.63;;;25.04
76009;BMP280;64700;52.130;21.270;2023-08-07T07:53:28;99125.78;;;25.07
76009;BMP280;64700;52.130;21.270;2023-08-07T07:55:54;99122.00;;;25.10
76009;BMP280;64700;52.130;21.270;2023-08-07T07:58:19;99123.34;;;25.04
76009;BMP280;64700;52.130;21.270;2023-08-07T08:00:45;99132.13;;;25.02
76009;BMP280;64700;52.130;21.270;2023-08-07T08:03:10;99128.81;;;25.04
76009;BMP280;64700;52.130;21.270;2023-08-07T08:05:37;99137.78;;;25.04
76009;BMP280;64700;52.130;21.270;2023-08-07T08:08:02;99129.69;;;24.99
76009;BMP280;64700;52.130;21.270;2023-08-07T08:10:28;99130.63;;;25.01
76009;BMP280;64700;52.130;21.270;2023-08-07T08:12:56;99135.56;;;25.03
76009;BMP280;64700;52.130;21.270;2023-08-07T08:15:21;99134.31;;;25.04
76009;BMP280;64700;52.130;21.270;2023-08-07T08:17:47;99147.56;;;25.00
76009;BMP280;64700;52.130;21.270;2023-08-07T08:20:12;99148.28;;;25.00
76009;BMP280;64700;52.130;21.270;2023-08-07T08:22:40;99140.31;;;25.02
76009;BMP280;64700;52.130;21.270;2023-08-07T08:25:05;99140.63;;;24.99
76009;BMP280;64700;52.130;21.270;2023-08-07T08:27:31;99144.13;;;24.99
76009;BMP280;64700;52.130;21.270;2023-08-07T08:29:57;99152.50;;;25.01
76009;BMP280;64700;52.130;21.270;2023-08-07T08:32:22;99151.25;;;25.02
76009;BMP280;64700;52.130;21.270;2023-08-07T08:34:47;99152.69;;;25.03
76009;BMP280;64700;52.130;21.270;2023-08-07T08:37:14;99145.47;;;25.06
76009;BMP280;64700;52.130;21.270;2023-08-07T08:39:39;99141.97;;;25.05
76009;BMP280;64700;52.130;21.270;2023-08-07T08:42:05;99144.63;;;24.98
76009;BMP280;64700;52.130;21.270;2023-08-07T08:44:30;99148.28;;;25.00
76009;BMP280;64700;52.130;21.270;2023-08-07T08:46:57;99146.50;;;25.03
76009;BMP280;64700;52.130;21.270;2023-08-07T08:49:27;99155.97;;;25.02
76009;BMP280;64700;52.130;21.270;2023-08-07T08:51:55;99162.50;;;24.99
76009;BMP280;64700;52.130;21.270;2023-08-07T08:54:20;99158.09;;;24.96
76009;BMP280;64700;52.130;21.270;2023-08-07T08:56:46;99173.03;;;24.95
76009;BMP280;64700;52.130;21.270;2023-08-07T08:59:11;99172.31;;;24.94
76009;BMP280;64700;52.130;21.270;2023-08-07T09:01:37;99169.56;;;24.94
76009;BMP280;64700;52.130;21.270;2023-08-07T09:04:02;99178.38;;;25.00
76009;BMP280;64700;52.130;21.270;2023-08-07T09:06:29;99177.53;;;25.18
76009;BMP280;64700;52.130;21.270;2023-08-07T09:08:56;99185.66;;;25.11
76009;BMP280;64700;52.130;21.270;2023-08-07T09:11:22;99181.44;;;24.97
76009;BMP280;64700;52.130;21.270;2023-08-07T09:13:48;99186.59;;;24.87
76009;BMP280;64700;52.130;21.270;2023-08-07T09:16:14;99192.38;;;24.84
76009;BMP280;64700;52.130;21.270;2023-08-07T09:18:39;99193.84;;;24.85
76009;BMP280;64700;52.130;21.270;2023-08-07T09:21:05;99194.97;;;24.89
76009;BMP280;64700;52.130;21.270;2023-08-07T09:23:30;99200.59;;;24.97
76009;BMP280;64700;52.130;21.270;2023-08-07T09:26:00;99205.31;;;24.96
76009;BMP280;64700;52.130;21.270;2023-08-07T09:28:26;99218.16;;;25.01
76009;BMP280;64700;52.130;21.270;2023-08-07T09:30:52;99223.06;;;25.03
76009;BMP280;64700;52.130;21.270;2023-08-07T09:33:23;99227.59;;;25.00
76009;BMP280;64700;52.130;21.270;2023-08-07T09:35:48;99221.75;;;25.09
76009;BMP280;64700;52.130;21.270;2023-08-07T09:38:14;99218.56;;;25.18
76009;BMP280;64700;52.130;21.270;2023-08-07T09:40:39;99222.97;;;25.21
76009;BMP280;64700;52.130;21.270;2023-08-07T09:43:04;99228.03;;;25.17
76009;BMP280;64700;52.130;21.270;2023-08-07T09:45:30;99212.03;;;25.21
76009;BMP280;64700;52.130;21.270;2023-08-07T09:48:00;99223.09;;;25.29
76009;BMP280;64700;52.130;21.270;2023-08-07T09:50:25;99217.63;;;25.29
76009;BMP280;64700;52.130;21.270;2023-08-07T09:52:50;99215.09;;;25.31
76009;BMP280;64700;52.130;21.270;2023-08-07T09:55:16;99222.53;;;25.31
76009;BMP280;64700;52.130;21.270;2023-08-07T09:57:44;99220.69;;;25.26
76009;BMP280;64700;52.130;21.270;2023-08-07T10:00:10;99229.94;;;25.22
76009;BMP280;64700;52.130;21.270;2023-08-07T10:02:44;99234.75;;;25.16
76009;BMP280;64700;52.130;21.270;2023-08-07T10:05:10;99227.72;;;25.08
76009;BMP280;64700;52.130;21.270;2023-08-07T10:07:38;99232.47;;;25.07
76009;BMP280;64700;52.130;21.270;2023-08-07T10:10:04;99240.88;;;24.96
76009;BMP280;64700;52.130;21.270;2023-08-07T10:12:29;99244.13;;;24.82
76009;BMP280;64700;52.130;21.270;2023-08-07T10:14:55;99246.16;;;24.62
76009;BMP280;64700;52.130;21.270;2023-08-07T10:17:23;99243.00;;;24.58
76009;BMP280;64700;52.130;21.270;2023-08-07T10:19:48;99242.81;;;24.69
76009;BMP280;64700;52.130;21.270;2023-08-07T10:22:14;99243.34;;;24.68
76009;BMP280;64700;52.130;21.270;2023-08-07T10:24:40;99248.41;;;24.64
76009;BMP280;64700;52.130;21.270;2023-08-07T10:27:06;99251.59;;;24.81
76009;BMP280;64700;52.130;21.270;2023-08-07T10:29:32;99245.13;;;24.65
76009;BMP280;64700;52.130;21.270;2023-08-07T10:31:59;99245.03;;;24.71
76009;BMP280;64700;52.130;21.270;2023-08-07T10:34:25;99238.09;;;24.70
76009;BMP280;64700;52.130;21.270;2023-08-07T10:36:53;99244.16;;;24.50
76009;BMP280;64700;52.130;21.270;2023-08-07T10:39:18;99245.53;;;24.56
76009;BMP280;64700;52.130;21.270;2023-08-07T10:41:46;99238.81;;;24.57
76009;BMP280;64700;52.130;21.270;2023-08-07T10:44:19;99241.22;;;24.61
76009;BMP280;64700;52.130;21.270;2023-08-07T10:47:03;99235.34;;;24.57
76009;BMP280;64700;52.130;21.270;2023-08-07T10:49:40;99244.03;;;24.55
76009;BMP280;64700;52.130;21.270;2023-08-07T10:52:13;99253.25;;;24.71
76009;BMP280;64700;52.130;21.270;2023-08-07T10:54:40;99245.16;;;24.78
76009;BMP280;64700;52.130;21.270;2023-08-07T10:57:12;99250.34;;;24.82
76009;BMP280;64700;52.130;21.270;2023-08-07T10:59:38;99238.13;;;24.83
76009;BMP280;64700;52.130;21.270;2023-08-07T11:02:04;99243.97;;;24.74
76009;BMP280;64700;52.130;21.270;2023-08-07T11:04:32;99253.19;;;24.58
76009;BMP280;64700;52.130;21.270;2023-08-07T11:07:00;99248.56;;;24.53
76009;BMP280;64700;52.130;21.270;2023-08-07T11:09:25;99255.72;;;24.56
76009;BMP280;64700;52.130;21.270;2023-08-07T11:11:50;99260.44;;;24.55
76009;BMP280;64700;52.130;21.270;2023-08-07T11:14:16;99264.09;;;24.58
76009;BMP280;64700;52.130;21.270;2023-08-07T11:16:42;99256.66;;;24.58
76009;BMP280;64700;52.130;21.270;2023-08-07T11:19:08;99261.19;;;24.56
76009;BMP280;64700;52.130;21.270;2023-08-07T11:21:33;99263.03;;;24.48
76009;BMP280;64700;52.130;21.270;2023-08-07T11:23:59;99263.28;;;24.50
76009;BMP280;64700;52.130;21.270;2023-08-07T11:26:24;99268.13;;;24.57
76009;BMP280;64700;52.130;21.270;2023-08-07T11:28:51;99268.31;;;24.59
76009;BMP280;64700;52.130;21.270;2023-08-07T11:31:17;99251.34;;;24.66
76009;BMP280;64700;52.130;21.270;2023-08-07T11:33:42;99248.81;;;24.68
76009;BMP280;64700;52.130;21.270;2023-08-07T11:36:11;99257.53;;;24.66
76009;BMP280;64700;52.130;21.270;2023-08-07T11:38:38;99257.53;;;24.66
76009;BMP280;64700;52.130;21.270;2023-08-07T11:41:03;99250.50;;;24.71
76009;BMP280;64700;52.130;21.270;2023-08-07T11:43:30;99248.19;;;24.75
76009;BMP280;64700;52.130;21.270;2023-08-07T11:45:56;99258.81;;;24.78
76009;BMP280;64700;52.130;21.270;2023-08-07T11:48:25;99260.53;;;24.82
76009;BMP280;64700;52.130;21.270;2023-08-07T11:50:51;99260.72;;;24.84
76009;BMP280;64700;52.130;21.270;2023-08-07T11:53:16;99271.84;;;24.86
76009;BMP280;64700;52.130;21.270;2023-08-07T11:55:51;99261.66;;;24.86
76009;BMP280;64700;52.130;21.270;2023-08-07T11:58:16;99253.25;;;24.84
76009;BMP280;64700;52.130;21.270;2023-08-07T12:00:43;99268.19;;;24.83
76009;BMP280;64700;52.130;21.270;2023-08-07T12:03:22;99276.38;;;24.83
76009;BMP280;64700;52.130;21.270;2023-08-07T12:05:48;99265.78;;;24.79
76009;BMP280;64700;52.130;21.270;2023-08-07T12:08:14;99272.56;;;24.73
76009;BMP280;64700;52.130;21.270;2023-08-07T12:10:39;99275.31;;;24.73
76009;BMP280;64700;52.130;21.270;2023-08-07T12:13:07;99280.56;;;24.71
76009;BMP280;64700;52.130;21.270;2023-08-07T12:15:32;99273.13;;;24.71
76009;BMP280;64700;52.130;21.270;2023-08-07T12:18:01;99283.81;;;24.69
76009;BMP280;64700;52.130;21.270;2023-08-07T12:20:26;99279.84;;;24.70
76009;BMP280;64700;52.130;21.270;2023-08-07T12:22:52;99279.59;;;24.68
76009;BMP280;64700;52.130;21.270;2023-08-07T12:25:17;99285.63;;;24.67
76009;BMP280;64700;52.130;21.270;2023-08-07T12:27:42;99311.53;;;24.60
76009;BMP280;64700;52.130;21.270;2023-08-07T12:30:08;99307.22;;;24.52
76009;BMP280;64700;52.130;21.270;2023-08-07T12:32:33;99310.69;;;24.52
76009;BMP280;64700;52.130;21.270;2023-08-07T12:34:58;99309.31;;;24.59
76009;BMP280;64700;52.130;21.270;2023-08-07T12:37:23;99313.75;;;24.62
76009;BMP280;64700;52.130;21.270;2023-08-07T12:39:48;99317.19;;;24.49
76009;BMP280;64700;52.130;21.270;2023-08-07T12:42:14;99321.91;;;24.49
76009;BMP280;64700;52.130;21.270;2023-08-07T12:44:39;99332.25;;;24.56
76009;BMP280;64700;52.130;21.270;2023-08-07T12:47:04;99325.28;;;24.55
76009;BMP280;64700;52.130;21.270;2023-08-07T12:49:29;99330.00;;;24.54
76009;BMP280;64700;52.130;21.270;2023-08-07T12:51:55;99346.22;;;24.52
76009;BMP280;64700;52.130;21.270;2023-08-07T12:54:22;99356.94;;;24.50
76009;BMP280;64700;52.130;21.270;2023-08-07T12:56:48;99362.28;;;24.56
76009;BMP280;64700;52.130;21.270;2023-08-07T12:59:13;99351.16;;;24.54
76009;BMP280;64700;52.130;21.270;2023-08-07T13:01:38;99352.19;;;24.51
76009;BMP280;64700;52.130;21.270;2023-08-07T13:04:03;99352.19;;;24.51
76009;BMP280;64700;52.130;21.270;2023-08-07T13:06:30;99354.91;;;24.51
76009;BMP280;64700;52.130;21.270;2023-08-07T13:08:55;99349.44;;;24.51
76009;BMP280;64700;52.130;21.270;2023-08-07T13:11:21;99346.72;;;24.51
76009;BMP280;64700;52.130;21.270;2023-08-07T13:13:46;99337.59;;;24.61
76009;BMP280;64700;52.130;21.270;2023-08-07T13:16:12;99339.53;;;24.66
76009;BMP280;64700;52.130;21.270;2023-08-07T13:18:37;99333.25;;;24.71
76009;BMP280;64700;52.130;21.270;2023-08-07T13:21:02;99340.78;;;24.65
76009;BMP280;64700;52.130;21.270;2023-08-07T13:23:27;99340.88;;;24.60
76009;BMP280;64700;52.130;21.270;2023-08-07T13:25:53;99332.97;;;24.56
76009;BMP280;64700;52.130;21.270;2023-08-07T13:28:18;99338.53;;;24.51
76009;BMP280;64700;52.130;21.270;2023-08-07T13:30:43;99323.84;;;24.54
76009;BMP280;64700;52.130;21.270;2023-08-07T13:33:08;99336.53;;;24.51
76009;BMP280;64700;52.130;21.270;2023-08-07T13:35:34;99324.84;;;24.51
76009;BMP280;64700;52.130;21.270;2023-08-07T13:37:59;99331.44;;;24.42
76009;BMP280;64700;52.130;21.270;2023-08-07T13:40:24;99325.97;;;24.42
76009;BMP280;64700;52.130;21.270;2023-08-07T13:42:49;99342.38;;;24.42
76009;BMP280;64700;52.130;21.270;2023-08-07T13:45:14;99341.53;;;24.47
76009;BMP280;64700;52.130;21.270;2023-08-07T13:47:40;99354.22;;;24.82
76009;BMP280;64700;52.130;21.270;2023-08-07T13:50:05;99356.81;;;24.74
76009;BMP280;64700;52.130;21.270;2023-08-07T13:52:32;99365.41;;;24.47